createdAt,value
2022-12-09T00:04:07.300Z,99364.47
2022-12-09T00:09:04.017Z,99371.69
2022-12-09T00:14:00.612Z,99372.72
2022-12-09T00:18:57.614Z,99380.13
2022-12-09T00:23:56.288Z,99385.97
2022-12-09T00:28:53.647Z,99383.44
2022-12-09T00:33:51.194Z,99394.81
2022-12-09T00:38:48.368Z,99401.72
2022-12-09T00:43:45.312Z,99398.84
2022-12-09T00:48:42.603Z,99401.19
2022-12-09T00:53:39.169Z,99400.28
2022-12-09T00:58:35.530Z,99398.78
2022-12-09T01:03:32.123Z,99398.16
2022-12-09T01:08:29.158Z,99397.25
2022-12-09T01:13:25.880Z,99400.91
2022-12-09T01:18:22.245Z,99403.59
2022-12-09T01:23:18.560Z,99401.97
2022-12-09T01:28:15.148Z,99410.66
2022-12-09T01:33:11.657Z,99409.03
2022-12-09T01:38:08.597Z,99416.06
2022-12-09T01:43:18.551Z,99404.13
2022-12-09T01:48:20.463Z,99402.78
2022-12-09T01:53:19.757Z,99398.22
2022-12-09T01:58:17.255Z,99396.03
2022-12-09T02:03:13.813Z,99400.94
2022-12-09T02:08:13.497Z,99389.63
2022-12-09T02:13:34.954Z,99396.03
2022-12-09T02:18:50.152Z,99387.09
2022-12-09T02:23:57.785Z,99388.22
2022-12-09T02:29:19.087Z,99385.94
2022-12-09T02:34:19.912Z,99376.38
2022-12-09T02:39:16.470Z,99384.63
2022-12-09T02:44:17.431Z,99380.47
2022-12-09T02:49:14.890Z,99382.69
2022-12-09T02:54:15.376Z,99371.09
2022-12-09T02:59:11.753Z,99366.03
2022-12-09T03:04:14.837Z,99365.88
2022-12-09T03:09:16.896Z,99358.59
2022-12-09T03:14:22.053Z,99362.88
2022-12-09T03:19:52.790Z,99366.28
2022-12-09T03:24:57.313Z,99355.22
2022-12-09T03:29:56.142Z,99357.34
2022-12-09T03:34:57.415Z,99350.00
2022-12-09T03:39:56.620Z,99340.78
2022-12-09T03:45:01.306Z,99345.19
2022-12-09T03:49:58.234Z,99339.84
2022-12-09T03:55:28.542Z,99343.63
2022-12-09T04:00:25.121Z,99336.44
2022-12-09T04:05:21.638Z,99334.41
2022-12-09T04:10:18.182Z,99331.78
2022-12-09T04:15:14.755Z,99331.78
2022-12-09T04:20:11.992Z,99336.44
2022-12-09T04:25:09.409Z,99334.16
2022-12-09T04:30:07.285Z,99332.59
2022-12-09T04:35:04.462Z,99329.97
2022-12-09T04:40:00.832Z,99328.69
2022-12-09T04:44:57.244Z,99331.81
2022-12-09T04:49:53.654Z,99324.84
2022-12-09T04:54:51.094Z,99336.00
2022-12-09T04:59:47.761Z,99334.38
2022-12-09T05:04:46.813Z,99330.41
2022-12-09T05:09:43.758Z,99336.44
2022-12-09T05:14:40.594Z,99328.81
2022-12-09T05:19:37.276Z,99330.66
2022-12-09T05:24:33.863Z,99329.09
2022-12-09T05:29:30.528Z,99327.44
2022-12-09T05:34:27.402Z,99318.09
2022-12-09T05:39:24.596Z,99315.66
2022-12-09T05:44:21.465Z,99302.47
2022-12-09T05:49:18.491Z,99308.56
2022-12-09T05:54:15.029Z,99306.41
2022-12-09T05:59:11.513Z,99296.19
2022-12-09T06:04:08.289Z,99309.59
2022-12-09T06:09:08.649Z,99310.16
2022-12-09T06:14:08.358Z,99309.78
2022-12-09T06:19:05.980Z,99323.41
2022-12-09T06:24:02.543Z,99334.38
2022-12-09T06:28:59.837Z,99327.47
2022-12-09T06:33:58.405Z,99321.03
2022-12-09T06:38:56.802Z,99319.56
2022-12-09T06:43:53.397Z,99316.28
2022-12-09T06:48:51.074Z,99314.19
2022-12-09T06:53:48.180Z,99309.59
2022-12-09T06:58:45.826Z,99315.41
2022-12-09T07:03:44.861Z,99315.72
2022-12-09T07:08:41.791Z,99326.63
2022-12-09T07:13:38.733Z,99337.53
2022-12-09T07:18:35.320Z,99339.97
2022-12-09T07:23:31.927Z,99342.59
2022-12-09T07:28:29.287Z,99343.28
2022-12-09T07:33:26.434Z,99342.28
2022-12-09T07:38:24.403Z,99347.44
2022-12-09T07:43:21.073Z,99359.59
2022-12-09T07:48:17.828Z,99363.13
2022-12-09T07:53:14.830Z,99363.81
2022-12-09T07:58:11.290Z,99350.03
2022-12-09T08:03:08.129Z,99350.69
2022-12-09T08:08:05.227Z,99362.00
2022-12-09T08:13:01.897Z,99358.25
2022-12-09T08:17:58.843Z,99363.88
2022-12-09T08:22:55.667Z,99361.94
2022-12-09T08:27:52.231Z,99368.69
2022-12-09T08:32:49.331Z,99369.72
2022-12-09T08:37:45.977Z,99370.16
2022-12-09T08:42:42.515Z,99370.84
2022-12-09T08:47:39.535Z,99368.06
2022-12-09T08:52:40.456Z,99367.47
2022-12-09T08:57:37.864Z,99366.91
2022-12-09T09:02:34.505Z,99373.25
2022-12-09T09:07:32.087Z,99368.03
2022-12-09T09:12:28.671Z,99374.78
2022-12-09T09:17:25.547Z,99376.97
2022-12-09T09:22:22.279Z,99384.56
2022-12-09T09:27:19.076Z,99393.53
2022-12-09T09:32:15.716Z,99389.38
2022-12-09T09:37:12.664Z,99392.00
2022-12-09T09:42:16.641Z,99390.50
2022-12-09T09:47:16.806Z,99391.31
2022-12-09T09:52:19.721Z,99386.44
2022-12-09T09:57:18.798Z,99388.97
2022-12-09T10:02:54.560Z,99390.63
2022-12-09T10:08:04.563Z,99375.34
2022-12-09T10:13:19.823Z,99374.31
2022-12-09T10:18:29.086Z,99373.88
2022-12-09T10:23:32.147Z,99353.06
2022-12-09T10:28:43.747Z,99348.50
2022-12-09T10:33:41.028Z,99342.53
2022-12-09T10:38:41.944Z,99341.59
2022-12-09T10:43:41.064Z,99339.88
2022-12-09T10:48:53.311Z,99334.56
2022-12-09T10:54:05.726Z,99333.66
2022-12-09T10:59:24.747Z,99336.97
2022-12-09T11:04:33.969Z,99339.69
2022-12-09T11:09:35.762Z,99336.19
2022-12-09T11:14:41.338Z,99341.13
2022-12-09T11:19:39.814Z,99340.94
2022-12-09T11:24:36.998Z,99342.72
2022-12-09T11:29:33.771Z,99336.41
2022-12-09T11:34:30.815Z,99343.06
2022-12-09T11:39:30.149Z,99335.28
2022-12-09T11:44:31.539Z,99323.19
2022-12-09T11:49:31.065Z,99329.47
2022-12-09T11:54:44.267Z,99332.34
2022-12-09T11:59:50.495Z,99335.03
2022-12-09T12:04:59.312Z,99336.38
2022-12-09T12:09:57.285Z,99332.25
2022-12-09T12:14:59.234Z,99317.47
2022-12-09T12:19:57.508Z,99317.22
2022-12-09T12:25:17.480Z,99324.28
2022-12-09T12:30:18.713Z,99332.91
2022-12-09T12:35:21.218Z,99323.16
2022-12-09T12:40:54.669Z,99321.97
2022-12-09T12:46:19.103Z,99318.47
2022-12-09T12:51:32.521Z,99321.59
2022-12-09T12:56:43.817Z,99322.88
2022-12-09T13:01:52.271Z,99315.78
2022-12-09T13:06:51.653Z,99309.34
2022-12-09T13:11:56.238Z,99308.31
2022-12-09T13:16:52.976Z,99307.94
2022-12-09T13:21:49.620Z,99315.16
2022-12-09T13:27:00.357Z,99313.38
2022-12-09T13:32:21.601Z,99316.66
2022-12-09T13:37:34.716Z,99305.06
2022-12-09T13:42:54.339Z,99304.00
2022-12-09T13:47:53.300Z,99304.78
2022-12-09T13:52:52.949Z,99307.75
2022-12-09T13:58:04.936Z,99309.41
2022-12-09T14:03:16.006Z,99306.66
2022-12-09T14:08:36.043Z,99310.41
2022-12-09T14:13:35.246Z,99303.19
2022-12-09T14:18:33.256Z,99304.75
2022-12-09T14:23:29.722Z,99304.38
2022-12-09T14:28:40.621Z,99305.97
2022-12-09T14:33:40.963Z,99296.22
2022-12-09T14:44:31.710Z,99295.00
2022-12-09T14:49:29.793Z,99298.25
2022-12-09T14:54:36.042Z,99303.66
2022-12-09T14:59:33.717Z,99303.97
2022-12-09T15:04:41.981Z,99311.09
2022-12-09T15:09:51.323Z,99314.09
2022-12-09T15:14:57.696Z,99309.34
2022-12-09T15:20:01.846Z,99309.03
2022-12-09T15:24:59.130Z,99312.97
2022-12-09T15:29:55.510Z,99311.88
2022-12-09T15:34:54.341Z,99312.66
2022-12-09T15:40:13.169Z,99315.28
2022-12-09T15:45:13.103Z,99323.72
2022-12-09T15:50:32.000Z,99317.06
2022-12-09T15:55:39.431Z,99323.03
2022-12-09T16:00:41.897Z,99326.41
2022-12-09T16:05:41.798Z,99328.09
2022-12-09T16:10:47.487Z,99329.47
2022-12-09T16:15:48.364Z,99332.28
2022-12-09T16:20:57.396Z,99329.22
2022-12-09T16:26:06.726Z,99334.97
2022-12-09T16:31:16.667Z,99328.56
2022-12-09T16:36:24.582Z,99330.47
2022-12-09T16:41:46.878Z,99332.69
2022-12-09T16:46:43.696Z,99324.03
2022-12-09T16:51:40.752Z,99324.88
2022-12-09T16:56:37.177Z,99323.94
2022-12-09T17:01:38.098Z,99331.75
2022-12-09T17:06:34.492Z,99333.31
2022-12-09T17:11:30.894Z,99344.03
2022-12-09T17:16:27.438Z,99335.16
2022-12-09T17:21:24.021Z,99338.47
2022-12-09T17:26:20.609Z,99334.16
2022-12-09T17:31:23.172Z,99336.56
2022-12-09T17:36:20.672Z,99335.28
2022-12-09T17:41:20.663Z,99335.13
2022-12-09T17:46:17.247Z,99336.69
2022-12-09T17:51:15.370Z,99345.81
2022-12-09T17:56:20.415Z,99345.75
2022-12-09T18:01:23.204Z,99356.13
2022-12-09T18:06:19.575Z,99345.59
2022-12-09T18:11:15.972Z,99349.69
2022-12-09T18:16:13.531Z,99357.59
2022-12-09T18:21:15.279Z,99363.53
2022-12-09T18:26:16.052Z,99361.16
2022-12-09T18:31:15.206Z,99366.47
2022-12-09T18:36:17.319Z,99366.94
2022-12-09T18:41:25.628Z,99369.53
2022-12-09T18:46:26.215Z,99378.75
2022-12-09T18:51:22.858Z,99377.44
2022-12-09T18:56:19.320Z,99378.97
2022-12-09T19:01:26.032Z,99386.72
2022-12-09T19:06:29.903Z,99376.44
2022-12-09T19:11:29.181Z,99378.31
2022-12-09T19:16:27.140Z,99380.19
2022-12-09T19:21:25.104Z,99386.66
2022-12-09T19:26:30.567Z,99391.28
2022-12-09T19:31:36.153Z,99387.28
2022-12-09T19:36:35.596Z,99392.59
2022-12-09T19:41:32.504Z,99401.56
2022-12-09T19:46:29.030Z,99406.09
2022-12-09T19:51:27.336Z,99402.50
2022-12-09T19:56:24.121Z,99403.97
2022-12-09T20:01:24.553Z,99401.47
2022-12-09T20:06:21.402Z,99403.34
2022-12-09T20:11:20.719Z,99397.16
2022-12-09T20:16:22.404Z,99400.53
2022-12-09T20:21:20.524Z,99405.75
2022-12-09T20:26:19.907Z,99404.19
2022-12-09T20:31:19.169Z,99402.72
2022-12-09T20:36:20.770Z,99406.03
2022-12-09T20:41:17.436Z,99413.00
2022-12-09T20:46:26.149Z,99401.91
2022-12-09T20:51:26.039Z,99410.28
2022-12-09T20:56:23.931Z,99415.50
2022-12-09T21:01:25.744Z,99416.44
2022-12-09T21:06:24.542Z,99415.28
2022-12-09T21:11:23.325Z,99420.16
2022-12-09T21:16:25.372Z,99415.66
2022-12-09T21:21:23.307Z,99417.22
2022-12-09T21:26:20.987Z,99422.44
2022-12-09T21:31:24.029Z,99419.31
2022-12-09T21:36:23.421Z,99424.66
2022-12-09T21:41:25.689Z,99431.56
2022-12-09T21:46:24.940Z,99431.56
2022-12-09T21:51:21.835Z,99431.91
2022-12-09T21:56:21.844Z,99443.22
2022-12-09T22:01:27.841Z,99445.69
2022-12-09T22:06:24.406Z,99441.03
2022-12-09T22:11:25.781Z,99441.56
2022-12-09T22:16:24.706Z,99449.28
2022-12-09T22:21:25.160Z,99452.16
2022-12-09T22:26:23.344Z,99447.00
2022-12-09T22:31:23.123Z,99450.44
2022-12-09T22:36:20.475Z,99444.84
2022-12-09T22:41:19.865Z,99444.25
2022-12-09T22:46:21.738Z,99455.44
2022-12-09T22:51:24.150Z,99445.19
2022-12-09T22:56:21.764Z,99455.72
2022-12-09T23:01:21.390Z,99461.22
2022-12-09T23:06:18.308Z,99457.47
2022-12-09T23:11:20.526Z,99466.66
2022-12-09T23:16:20.548Z,99462.38
2022-12-09T23:21:20.160Z,99463.38
2022-12-09T23:26:19.190Z,99465.06
2022-12-09T23:31:18.978Z,99471.16
2022-12-09T23:36:24.741Z,99469.75
2022-12-09T23:41:22.223Z,99474.19
2022-12-09T23:46:21.117Z,99466.75
2022-12-09T23:51:25.128Z,99462.84
2022-12-09T23:56:23.400Z,99477.16
